Tiempo atmosférico en la estación meteorológica de Barcelona Aeropuerto, Barcelona (4 m.)



Fecha
DESCASC
Temp. máxima en grados centígrados (hora)
DESCASC
Temp. mínima en grados centígrados (hora)
DESCASC
Temp. media en grados centígrados
DESCASC
Racha de viento máxima en m/sg (hora)
DESCASC
Velocidad máxima media en intervalos de 10 minutos(hora)
DESCASC
Precipitaciones diarias en mm
DESCASC
Precipitaciones de 00:00 a 06:00 en mm
DESCASC
Precipitaciones de 06:00 a 12:00 en mm
DESCASC
Precipitaciones de 12:00 a 18:00 en mm
DESCASC
Precipitaciones de 18:00 a 24:00 en mm
DESCASC
14-10-2018 26 (13:20) 18.5 (08:50) 22.3 17.5 (23:40) 10.83 (23:50) 12.6 0 0 0 12.6
13-10-2018 25.3 (15:40) 20.4 (04:30) 22.8 5.83 (11:00) 3.61 (15:50) 1.2 0 0 1.2 0
12-10-2018 25.5 (14:40) 17.8 (07:50) 21.6 8.89 (01:50) 4.44 (09:40) 0 0 0 0 0
11-10-2018 25.3 (14:50) 17.1 (08:10) 21.2 9.72 (15:50) 7.78 (16:00) 0 0 0 0 0
10-10-2018 24.3 (15:30) 17.4 (09:00) 20.8 11.67 (02:00) 8.61 (01:50) 2.9 0.1 2.8 0 0
08-10-2018 21.8 (17:00) 15 (07:40) 18.4 8.89 (15:50) 6.11 (17:40) 3.2 1 0.1 0.4 1.7
07-10-2018 23.6 (00:40) 15.7 (23:20) 19.7 10.28 (09:30) 8.61 (22:00) 6.2 0.3 0.4 0.6 4.9
06-10-2018 25.7 (16:20) 17.2 (07:10) 21.5 9.72 (17:00) 7.5 (16:50) 0 0 0 0 0
05-10-2018 25.1 (13:20) 16 (08:00) 20.6 8.33 (11:00) 5.56 (09:00) 0 0 0 0 0
04-10-2018 25.5 (15:20) 15.8 (00:00) 20.7 9.17 (09:30) 6.39 (07:50) 0 0 0 0 0
03-10-2018 26 (12:30) 15.7 (00:00) 20.8 8.89 (08:10) 6.67 (09:00) 0 0 0 0 0
02-10-2018 24.4 (17:40) 14.8 (00:00) 19.6 13.33 (03:50) 7.5 (09:50) 0 0 0 0 0
01-10-2018 25.2 (13:40) 18.2 (00:00) 21.7 11.39 (10:50) 7.78 (09:20) 0 0 0 0 0
30-09-2018 26.8 (14:20) 18.9 (00:00) 22.8 10.28 (15:20) 8.06 (15:10) 0 0 0 0 0
29-09-2018 27.5 (13:50) 18.6 (00:00) 23.1 10.83 (21:10) 8.06 (21:10) -- -- 0 0 0
28-09-2018 -- (--) -- (--) -- -- (--) -- (--) -- 0 0 0 --
27-09-2018 -- (--) -- (--) -- 7.22 (13:30) 5.28 (09:50) 0 0 0 0 0
26-09-2018 25.2 (16:10) 20.5 (00:00) 22.9 16.11 (11:10) 12.5 (13:00) 0 0 0 0 0
25-09-2018 26 (14:00) 18.3 (00:00) 22.1 13.89 (18:00) 11.11 (18:00) 0 0 0 0 0
24-09-2018 26.3 (10:50) 22.1 (00:00) 24.2 9.72 (11:10) 5.83 (15:30) 1.1 0 0 1 0.1
23-09-2018 28.8 (15:40) 21.8 (07:40) 25.3 11.67 (16:30) 9.17 (16:20) 0 0 0 0 0
22-09-2018 28.8 (13:10) 22.2 (07:30) 25.5 10.28 (15:30) 8.33 (16:10) 0 0 0 0 0
21-09-2018 29.1 (11:50) 21 (06:40) 25.1 11.39 (14:00) 8.89 (14:00) 0 0 0 0 0
20-09-2018 29.7 (12:20) 21 (07:40) 25.4 9.72 (05:20) 6.67 (17:40) 0 0 0 0 0
19-09-2018 27.2 (12:00) 20.3 (07:20) 23.8 7.22 (12:00) 5 (09:50) 0 0 0 0 0
18-09-2018 26.1 (12:50) 20.3 (09:40) 23.2 10.83 (11:10) 6.94 (13:50) 5.5 0 5.5 0 0
17-09-2018 27.6 (13:00) 20.9 (07:50) 24.3 8.89 (10:40) 5.56 (15:30) 0 0 0 0 0
16-09-2018 27.9 (13:40) 21.2 (00:00) 24.6 8.33 (03:20) 4.17 (14:50) 1.1 0.8 0 0.3 0
15-09-2018 27.2 (12:10) 22.4 (00:00) 24.8 8.89 (08:50) 5.56 (10:50) 0.1 0 0 0 0.1

Gráficas

Temp. máximas Temp. mínimas Temp. medias Precipitaciones Rachas de viento máximas Velocidades máximas media en intervalos de 10 minutos

Datos horarios

Fecha y hora oficial Temperatura (ºC) Velocidad del viento (km/h) Dirección del viento Racha (km/h) Dirección de racha Precipitación (mm) Presión (hPa) Tendencia (hPa) Humedad (%)
2018-10-14 23:00:00 22.1 33 Sudeste 59 Sudeste 2.5 1004.7 -1.5 89
2018-10-14 22:00:00 22.6 30 Sudeste 54 Sur 0.5 1004.6 -2.2 85
2018-10-14 21:00:00 22.8 37 Sudeste 52 Sur 1 1005.6 -1.6 84
2018-10-14 20:00:00 23 31 Sudeste 54 Sur 0.1 1006.2 -1.1 82
2018-10-14 19:00:00 23.5 22 Sudeste 41 Sudeste 0 1006.8 -0.8 76
2018-10-14 18:00:00 23.8 26 Sudeste 42 Sur 0 1007.2 -1.5 76
2018-10-14 17:00:00 24.3 24 Sudeste 41 Sudeste 0 1007.3 -2.4 75
2018-10-14 16:00:00 24.8 25 Sudeste 39 Sudeste 0 1007.6 -3 73
2018-10-14 15:00:00 25.2 20 Sudeste 30 Sur 0 1008.7 -2.3 70
2018-10-14 14:00:00 25.4 18 Sur 26 Sur 0 1009.7 -1.6 68
2018-10-14 13:00:00 25.5 14 Sudeste 22 Sudeste 0 1010.6 -1.2 69
2018-10-14 12:00:00 24.7 14 Sur 24 Sur 0 1011 -0.7 73
2018-10-14 11:00:00 22 9 Norte 17 Norte 0 1011.3 -0.1 87
2018-10-14 10:00:00 19.7 9 Norte 30 Norte 0 1011.8 -0.1 93
2018-10-14 09:00:00 18.6 9 Norte 15 Norte 0 1011.7 -0.5 97
2018-10-14 08:00:00 18.8 12 Norte 15 Norte 0 1011.4 -1.3 96
2018-10-14 07:00:00 18.9 12 Norte 15 Norte 0 1011.9 -1.3 96
2018-10-14 06:00:00 19.3 11 Norte 15 Norte 0 1012.2 -1.8 96
2018-10-14 05:00:00 19.5 10 Norte 15 Norte 0 1012.7 -2 96
2018-10-14 04:00:00 19.8 11 Norte 15 Norte 0 1013.2 -1.8 95
2018-10-14 03:00:00 19.9 11 Norte -- -- -- 1014 -1.5 95
2018-10-14 02:00:00 19.8 10 Norte 15 Norte 0 1014.7 -1.3 96
2018-10-14 01:00:00 20.2 7 Norte 9 Norte 0 1015 -1.2 96
2018-10-14 00:00:00 21 0 Calma 4 Norte 0 1015.5 -0.8 93
2018-10-13 23:00:00 21.9 0 Calma 9 Sur 0 1016 -0.4 89
2018-10-13 22:00:00 22.6 7 Sur 11 Sur 0 1016.2 -0.3 83
2018-10-13 21:00:00 22.9 8 Sur 11 Sur 0 1016.3 -0.2 82
2018-10-13 20:00:00 23 5 Sur 15 Sur 0 1016.4 -0.4 81
2018-10-13 19:00:00 23.4 6 Sur 13 Sur 0 1016.5 -0.9 81
2018-10-13 18:00:00 24.3 9 Sur 17 Sur 0 1016.5 -1.7 78
2018-10-13 17:00:00 24.8 12 Sur 18 Sudoeste 0 1016.8 -2.1 75
2018-10-13 16:00:00 25 13 Sudoeste 18 Sudoeste 0 1017.4 -2.4 79
2018-10-13 15:00:00 23.4 9 Sudoeste 15 Sudoeste 0 1018.2 -1.8 89
2018-10-13 14:00:00 22.2 6 Norte 13 Norte 1.2 1018.9 -1.3 94
2018-10-13 13:00:00 23.1 0 Calma 13 Sudoeste 0 1019.8 -0.4 85
2018-10-13 12:00:00 23.5 3 Sudoeste 11 Oeste 0 1020 0.1 83
2018-10-13 11:00:00 23 8 Norte 21 Norte 0 1020.2 0.4 84
2018-10-13 10:00:00 22 9 Norte 18 Norte 0 1020.2 0.4 88
2018-10-13 09:00:00 21.3 6 Norte 11 Norte 0 1019.9 -0.3 91
2018-10-13 08:00:00 21 3 Norte 11 Norte 0 1019.8 -0.7 92
2018-10-13 07:00:00 21 8 Norte 11 Norte 0 1019.8 -0.9 92
2018-10-13 06:00:00 20.8 9 Norte 11 Norte 0 1020.2 -0.9 92
2018-10-13 05:00:00 20.4 5 Norte 11 Norte 0 1020.5 -0.9 93
2018-10-13 04:00:00 20.6 9 Norte 11 Norte 0 1020.7 -0.9 92
2018-10-13 03:00:00 20.8 8 Nordeste -- -- -- 1021.1 -0.8 91
2018-10-13 02:00:00 20.6 9 Norte 15 Nordeste 0 1021.4 -0.5 92
2018-10-13 01:00:00 20.7 8 Norte 15 Nordeste 0 1021.6 -0.3 92
2018-10-13 00:00:00 21.5 0 Calma 4 Nordeste 0 1021.9 0.2 93
2018-10-12 23:00:00 21.7 -- -- -- -- 0 1021.9 0.4 92
2018-10-12 22:00:00 22.5 6 Oeste 11 Sur 0 1021.9 0.7 90
2018-10-12 21:00:00 22.9 9 Sur 13 Sur 0 1021.7 0.7 90
2018-10-12 20:00:00 23 9 Sur 15 Sur 0 1021.5 0.3 89
2018-10-12 19:00:00 23.8 10 Sudoeste 18 Sudoeste 0 1021.2 0 84
2018-10-12 18:00:00 24.9 15 Sudoeste 22 Sudoeste 0 1021 -0.5 78
2018-10-12 17:00:00 25.3 16 Sudoeste 22 Sudoeste 0 1021.2 -0.8 76
2018-10-12 16:00:00 25.2 13 Sur 22 Sur 0 1021.2 -1.2 77
2018-10-12 15:00:00 25.1 15 Sur 18 Sur 0 1021.5 -1 76
2018-10-12 14:00:00 24.8 9 Sur 15 Sur 0 1022 0 77
2018-10-12 13:00:00 24.3 0 Calma 22 Norte 0 1022.4 0.9 76
2018-10-12 12:00:00 22.3 9 Norte 22 Nordeste 0 1022.5 1.9 78
2018-10-12 11:00:00 21.3 12 Norte 32 Nordeste 0 1022 2.3 80
2018-10-12 10:00:00 19.9 16 Norte 22 Norte 0 1021.5 2.5 81
2018-10-12 09:00:00 18.2 14 Norte 22 Norte 0 1020.6 2.1 87
2018-10-12 08:00:00 17.8 13 Norte 18 Norte 0 1019.7 1.3 89
2018-10-12 07:00:00 18 14 Norte 18 Norte 0 1019 0.9 91
2018-10-12 06:00:00 18.5 12 Norte 15 Norte 0 1018.5 0.3 92
2018-10-12 05:00:00 19.1 11 Norte 21 Nordeste 0 1018.4 0.3 93
2018-10-12 04:00:00 19.3 10 Norte 15 Norte 0 1018.1 0.4 93
2018-10-12 03:00:00 19.9 3 Nordeste -- -- -- 1018.2 0.8 90
2018-10-12 02:00:00 20.1 8 Norte 32 Nordeste 0 1018.1 1.3 88
2018-10-12 01:00:00 20.3 7 Norte 15 Nordeste 0 1017.7 1.2 89
2018-10-12 00:00:00 21.3 3 Nordeste 11 Nordeste 0 1017.4 1.7 87
2018-10-11 23:00:00 21.3 2 Oeste 13 Oeste 0 1016.8 1.3 88
2018-10-11 22:00:00 21.7 9 Oeste 17 Oeste 0 1016.5 2 86
2018-10-11 21:00:00 22.6 13 Sudoeste 21 Oeste 0 1015.7 2.1 81
2018-10-11 20:00:00 22.5 13 Oeste 24 Sudoeste 0 1015.5 2 82
2018-10-11 19:00:00 22.8 19 Oeste 28 Oeste 0 1014.5 1.1 79
2018-10-11 18:00:00 23.5 22 Sudoeste 32 Oeste 0 1013.6 0.4 76
2018-10-11 17:00:00 24.5 21 Sudoeste 35 Sudoeste 0 1013.5 0.2 73
2018-10-11 16:00:00 24.8 28 Sudoeste 35 Sudoeste 0 1013.4 0.1 72
2018-10-11 15:00:00 25 24 Sudoeste 32 Sudoeste 0 1013.2 -0.2 71
2018-10-11 14:00:00 25 20 Sudoeste 30 Sudoeste 0 1013.3 0.1 73
2018-10-11 13:00:00 24.6 15 Sudoeste 24 Sudoeste 0 1013.3 0.3 76
2018-10-11 12:00:00 23.9 6 Sudoeste 17 Norte 0 1013.4 1.1 77
2018-10-11 11:00:00 21.1 13 Norte 26 Norte 0 1013.2 1.7 82
2018-10-11 10:00:00 18.9 16 Norte 22 Norte 0 1013 1.8 88
2018-10-11 09:00:00 17.3 15 Norte 22 Norte 0 1012.3 1.4 93
2018-10-11 08:00:00 17.3 16 Norte 22 Norte 0 1011.5 0.7 93
2018-10-11 07:00:00 17.7 13 Norte 18 Norte 0 1011.2 0.4 93
2018-10-11 06:00:00 17.8 13 Norte 18 Norte 0 1010.9 -0.2 94
2018-10-11 05:00:00 17.9 13 Norte 17 Norte 0 1010.8 -0.1 94
2018-10-11 04:00:00 18.5 11 Norte 17 Norte 0 1010.8 0.4 94
2018-10-11 03:00:00 18.3 10 Norte 17 Norte 0 1011.1 0.5 95
2018-10-11 02:00:00 18.7 11 Norte 22 Nordeste 0 1010.9 0.2 94
2018-10-11 01:00:00 19.2 9 Norte 13 Norte 0 1010.4 0.1 94
2018-10-11 00:00:00 19.6 10 Norte 13 Norte 0 1010.6 0.7 94
2018-10-10 23:00:00 20.3 8 Nordeste 28 Norte 0 1010.7 1 91
2018-10-10 22:00:00 21.1 14 Noroeste 30 Noroeste 0 1010.3 1.6 88
2018-10-10 21:00:00 22.2 16 Este 24 Este 0 1009.9 1.3 88
2018-10-10 20:00:00 22.4 15 Este 18 Este 0 1009.7 1 83
2018-10-10 19:00:00 22.7 12 Este 22 Este 0 1008.7 -0.1 83
2018-10-10 18:00:00 23.3 15 Este 24 Este 0 1008.6 -0.5 77
2018-10-10 17:00:00 23.1 15 Este 21 Este 0 1008.7 -0.9 78
2018-10-10 16:00:00 23.8 15 Este 26 Este 0 1008.8 -1.6 72
2018-10-10 15:00:00 23.5 13 Este 24 Nordeste 0 1009.1 -1.5 76
2018-10-10 14:00:00 22.4 15 Nordeste 32 Nordeste 0 1009.6 -0.7 79
2018-10-10 13:00:00 21.6 24 Este 33 Este 0 1010.4 0.3 83
2018-10-10 12:00:00 21.6 23 Este 30 Nordeste 0 1010.6 0.5 83
2018-10-10 11:00:00 19.8 13 Norte 32 Norte 0 1010.3 0.9 88
2018-10-10 10:00:00 18.4 14 Norte 41 Nordeste 0 1010.1 1.1 92
2018-10-10 09:00:00 17.6 12 Norte 35 Nordeste 2.6 1010.1 0.8 96
2018-10-10 08:00:00 18.2 15 Nordeste 33 Norte 0 1009.4 -0.4 89
2018-10-10 07:00:00 18.1 13 Norte 24 Nordeste 0.2 1009 -1.2 89
2018-10-10 06:00:00 18.5 17 Norte 30 Nordeste 0.1 1009.3 -2.1 88
2018-10-10 05:00:00 19.1 23 Nordeste 32 Este 0 1009.8 -1.4 86
2018-10-10 04:00:00 18.8 14 Nordeste 28 Este 0 1010.2 -1.5 82
2018-10-10 03:00:00 18.9 22 Este 42 Este 0 1011.4 -0.6 86
2018-10-10 02:00:00 19.1 30 Este 42 Este 0 1011.2 -1.6 86
2018-10-10 01:00:00 18.9 13 Nordeste 35 Nordeste 0 1011.7 -1.4 87
2018-10-10 00:00:00 18.7 23 Nordeste 32 Nordeste 0.1 1012 -0.7 90
2018-10-09 23:00:00 18.9 19 Nordeste 55 Este 0.5 1012.8 -0.5 91
2018-10-09 22:00:00 19.1 39 Este 54 Este 0 1013.1 -0.3 91
2018-10-09 21:00:00 19.5 23 Nordeste 54 Este 0.6 1012.7 -1 85
2018-10-09 20:00:00 20.8 42 Este 55 Este 0.1 1013.3 -1 90
2018-10-09 19:00:00 21.4 28 Este 39 Este 0 1013.4 -1 79
2018-10-09 18:00:00 21.8 22 Este 33 Nordeste 0 1013.7 -0.9 70
2018-10-09 17:00:00 21.9 17 Este 32 Este 0 1014.3 -0.9 69
2018-10-09 16:00:00 21.9 22 Este 35 Este 0 1014.4 -1 72
2018-10-09 15:00:00 21.9 24 Este 33 Este 0 1014.6 -0.6 74
2018-10-09 14:00:00 21.8 27 Este 35 Este 0 1015.2 0.4 76
2018-10-09 13:00:00 21.6 28 Este 41 Este 0 1015.4 1.1 76
2018-10-09 12:00:00 20.5 31 Este 42 Este 0 1015.2 1.4 83
2018-10-09 11:00:00 20.3 30 Este 41 Este 0 1014.8 1.9 84
2018-10-09 10:00:00 17.9 17 Norte 32 Norte 0 1014.3 1.9 87
2018-10-09 09:00:00 16.3 21 Nordeste 35 Nordeste 2.1 1013.8 1.3 90
2018-10-09 08:00:00 16.1 22 Nordeste 28 Norte 0.9 1012.9 0 85
2018-10-09 07:00:00 16.3 19 Norte 30 Norte 0 1012.4 -1 77
2018-10-09 06:00:00 16 23 Norte 32 Norte 0 1012.5 -1.7 76
2018-10-09 05:00:00 15.9 20 Norte 28 Norte 0 1012.9 -1.7 77
2018-10-09 04:00:00 15.7 18 Norte 26 Norte 0 1013.4 -1.8 80
2018-10-09 03:00:00 16 15 Norte 22 Norte 0 1014.2 -0.9 81
2018-10-09 02:00:00 16.4 15 Norte 24 Norte 0.1 1014.6 -0.6 79
2018-10-09 01:00:00 16.6 12 Norte 15 Norte 0 1015.2 -0.6 81
2018-10-09 00:00:00 16.6 13 Norte 17 Norte 0 1015.1 -0.6 80
2018-10-08 23:00:00 17.5 13 Norte 30 Norte 0 1015.2 -0.7 77
2018-10-08 22:00:00 18.1 10 Norte 28 Nordeste 0 1015.8 0.2 79
2018-10-08 21:00:00 18.2 7 Norte 26 Norte 0 1015.7 0.1 81
2018-10-08 20:00:00 18.1 15 Nordeste 24 Este 1.7 1015.9 0.4 74
2018-10-08 19:00:00 19.7 17 Este 26 Este 0 1015.6 -0.2 67
2018-10-08 18:00:00 20.2 22 Este 26 Este 0 1015.6 -0.7 61
2018-10-08 17:00:00 21.6 15 Este 24 Sudeste 0 1015.5 -1.3 51
2018-10-08 16:00:00 21 16 Este 32 Nordeste 0 1015.8 -1.4 54
2018-10-08 15:00:00 19.8 14 Este 22 Este 0 1016.3 -1.3 60
2018-10-08 14:00:00 18.8 9 Norte 13 Norte 0 1016.8 -0.2 69
2018-10-08 13:00:00 17 8 Norte 28 Norte 0.4 1017.2 0.5 76
2018-10-08 12:00:00 16.7 9 Norte 18 Norte 0.1 1017.6 1.5 72
2018-10-08 11:00:00 16.6 13 Norte 24 Norte 0 1017 1.5 70
2018-10-08 10:00:00 15.8 18 Norte 28 Norte 0 1016.7 1.6 71
2018-10-08 09:00:00 15.4 18 Norte 26 Norte 0 1016.1 0.5 74
2018-10-08 08:00:00 15 15 Norte 22 Norte 0 1015.5 -0.3 76
2018-10-08 07:00:00 15.2 14 Norte 21 Norte 0 1015.1 -0.6 77
2018-10-08 06:00:00 15.5 13 Norte 18 Norte 0 1015.6 -0.4 76
2018-10-08 05:00:00 15.5 11 Norte 21 Norte 0 1015.8 -0.7 79
2018-10-08 04:00:00 15.6 12 Norte 15 Norte 0 1015.7 -1.1 84
2018-10-08 03:00:00 15.7 10 Norte 15 Norte 0 1016 -0.9 85
2018-10-08 02:00:00 15.8 10 Norte 21 Norte 0 1016.5 -0.4 87
2018-10-08 01:00:00 15.5 9 Nordeste 26 Norte 1 1016.8 0.3 88
2018-10-08 00:00:00 16.1 10 Nordeste 22 Este 1.5 1016.9 0.8 83
2018-10-07 23:00:00 16 8 Nordeste 35 Nordeste 3.3 1016.9 1.2 86
2018-10-07 22:00:00 17.6 31 Nordeste 37 Nordeste 0.1 1016.5 1.5 76
2018-10-07 21:00:00 20 14 Sudeste 22 Sudeste 0 1016.1 1.5 63
2018-10-07 20:00:00 19.9 13 Sur 26 Sur 0 1015.7 1.1 68
2018-10-07 19:00:00 20.8 15 Sudoeste 32 Sudoeste 0 1015 0.4 61
2018-10-07 18:00:00 21.2 17 Sudoeste 28 Sudoeste 0 1014.6 0.1 58
2018-10-07 17:00:00 21.1 20 Sudoeste 33 Sur 0 1014.6 -0.3 60
2018-10-07 16:00:00 20.1 18 Sudoeste 33 Sudoeste 0 1014.6 -0.6 63
2018-10-07 15:00:00 20.8 14 Sudoeste 22 Sur 0 1014.5 -0.7 64
2018-10-07 14:00:00 19.2 8 Sudoeste 15 Sudoeste 0 1014.9 0.1 66
2018-10-07 13:00:00 18.9 7 Noroeste 24 Norte 0.6 1015.2 0.8 67
2018-10-07 12:00:00 17.9 5 Oeste 15 Sudeste 0.2 1015.2 1.8 77
2018-10-07 11:00:00 18.1 10 Este 22 Nordeste 0 1014.8 1.9 76
2018-10-07 10:00:00 17.4 12 Nordeste 37 Norte 0.2 1014.4 2.2 57
2018-10-07 09:00:00 18.6 21 Este 33 Este 0 1013.4 2.2 76
2018-10-07 08:00:00 18.5 23 Este 32 Este 0 1012.9 2.9 79
2018-10-07 07:00:00 19.7 18 Nordeste 33 Nordeste 0 1012.2 1.8 52
2018-10-07 06:00:00 20.1 19 Norte 33 Norte 0 1011.2 0.3 75
2018-10-07 05:00:00 20.6 12 Norte 17 Norte 0 1010 -1.2 86
2018-10-07 04:00:00 21.2 10 Norte 15 Nordeste 0.3 1010.4 -1.7 85
2018-10-07 03:00:00 23.5 14 Sudoeste 28 Sudoeste 0 1010.9 -1.4 83
2018-10-07 02:00:00 23.5 17 Sudoeste 26 Sudoeste 0 1011.2 -1.5 81
2018-10-07 01:00:00 22 2 Nordeste 30 Sudoeste 0 1012.1 -0.8 78
2018-10-07 00:00:00 22.3 4 Noroeste 17 Oeste 0 1012.3 -0.6 81
2018-10-06 23:00:00 22 6 Oeste 11 Oeste 0 1012.7 0 82
2018-10-06 22:00:00 21.8 9 Oeste 15 Oeste 0 1012.9 0.4 82
2018-10-06 21:00:00 22.4 13 Oeste 22 Oeste 0 1012.9 0.2 77
2018-10-06 20:00:00 22.9 17 Sudoeste 26 Oeste 0 1012.7 -0.4 73
2018-10-06 19:00:00 23.5 17 Sudoeste 32 Sudoeste 0 1012.5 -0.9 75
2018-10-06 18:00:00 24.4 23 Sudoeste 33 Sudoeste 0 1012.7 -1.5 72
2018-10-06 17:00:00 25.1 25 Sudoeste 35 Oeste 0 1013.1 -1.9 68
2018-10-06 16:00:00 25.4 22 Sudoeste 32 Sudoeste 0 1013.4 -2.5 64
2018-10-06 15:00:00 25.3 18 Sudoeste 28 Sudoeste 0 1014.2 -2.1 65
2018-10-06 14:00:00 24.3 12 Sudoeste 21 Sur 0 1015 -1.5 69
2018-10-06 13:00:00 24.7 9 Sudeste 15 Sudeste 0 1015.9 -0.6 66
2018-10-06 12:00:00 23.9 4 Norte 21 Norte 0 1016.3 0.1 64
2018-10-06 11:00:00 21 11 Norte 18 Norte 0 1016.5 0.6 73
2018-10-06 10:00:00 20.7 13 Norte 18 Norte 0 1016.5 0.9 74
2018-10-06 09:00:00 18.3 14 Norte 21 Norte 0 1016.2 0.6 84
2018-10-06 08:00:00 17.6 14 Norte 22 Norte 0 1015.9 0 87
2018-10-06 07:00:00 17.3 15 Norte 21 Norte 0 1015.6 -0.6 90
2018-10-06 06:00:00 18 13 Norte 18 Norte 0 1015.6 -1 88
2018-10-06 05:00:00 17.9 13 Norte 18 Norte 0 1015.9 -1 89
2018-10-06 04:00:00 18.1 11 Norte 17 Norte 0 1016.2 -0.9 88
2018-10-06 03:00:00 18.5 12 Norte 15 Norte 0 1016.6 -0.8 88
2018-10-06 02:00:00 19.1 11 Norte 21 Norte 0 1016.9 -0.3 86
2018-10-06 01:00:00 19.4 13 Norte 17 Norte 0 1017.1 0.1 85
2018-10-06 00:00:00 19.9 9 Norte 13 Norte 0 1017.4 0.5 83
2018-10-05 23:00:00 20.7 9 Norte 21 Norte 0 1017.2 0.5 80
2018-10-05 22:00:00 22.8 6 Sudeste 13 Sudeste 0 1017 0.4 69
2018-10-05 21:00:00 22.9 9 Sudeste 15 Este 0 1016.9 0.6 70
2018-10-05 20:00:00 23 10 Este 15 Sudeste 0 1016.7 0 71
2018-10-05 19:00:00 23.4 10 Sudeste 17 Sudeste 0 1016.6 -0.3 72
2018-10-05 18:00:00 24.1 10 Sudeste 18 Este 0 1016.3 -1.1 70
2018-10-05 17:00:00 24.3 13 Sudeste 22 Sudeste 0 1016.7 -1.2 70
2018-10-05 16:00:00 24.4 14 Sudeste 22 Sudeste 0 1016.9 -1.6 67
2018-10-05 15:00:00 24.2 16 Sudeste 26 Este 0 1017.4 -1.5 68
2018-10-05 14:00:00 24.5 15 Sudeste 24 Este 0 1017.9 -1.4 64
2018-10-05 13:00:00 24.4 14 Este 28 Nordeste 0 1018.5 -0.6 60
2018-10-05 12:00:00 24.2 15 Este 22 Este 0 1018.9 0.3 56
2018-10-05 11:00:00 22.1 14 Norte 30 Norte 0 1019.3 1 55
2018-10-05 10:00:00 19.3 19 Norte 26 Norte 0 1019.1 0.6 64
2018-10-05 09:00:00 16.9 20 Norte 28 Norte 0 1018.6 0 71
2018-10-05 08:00:00 16 18 Norte 26 Norte 0 1018.3 -0.6 76
2018-10-05 07:00:00 16.2 18 Norte 26 Norte 0 1018.5 -1 76
2018-10-05 06:00:00 16.8 16 Norte 24 Norte 0 1018.6 -1.5 75
2018-10-05 05:00:00 17.4 16 Norte 24 Norte 0 1018.9 -1.4 73
2018-10-05 04:00:00 18.4 17 Norte 22 Norte 0 1019.5 -0.9 69
2018-10-05 03:00:00 18.4 15 Norte 22 Norte 0 1020.1 -0.6 71
2018-10-05 02:00:00 18.2 14 Norte 22 Nordeste 0 1020.3 -0.1 73
2018-10-05 01:00:00 18.5 14 Norte 21 Nordeste 0 1020.4 0.2 75
2018-10-05 00:00:00 20.4 12 Norte 26 Este 0 1020.7 0.8 69
2018-10-04 23:00:00 21.4 17 Este 26 Este 0 1020.4 0.8 71
2018-10-04 22:00:00 21.8 17 Este 22 Este 0 1020.2 0.7 62
2018-10-04 21:00:00 21.7 11 Este 17 Este 0 1019.9 0.3 63
2018-10-04 20:00:00 22.4 13 Este 18 Este 0 1019.6 0 58
2018-10-04 19:00:00 23.5 15 Este 22 Este 0 1019.5 0 56
2018-10-04 18:00:00 23.8 14 Este 24 Este 0 1019.6 -0.3 56
2018-10-04 17:00:00 24.6 12 Sudeste 21 Sudeste 0 1019.6 -0.8 53
2018-10-04 16:00:00 24.9 11 Sur 15 Sudeste 0 1019.5 -1.4 52
2018-10-04 15:00:00 24.7 9 Sur 18 Sur 0 1019.9 -1.6 52
2018-10-04 14:00:00 24.4 11 Sudeste 21 Sudeste 0 1020.4 -1 52
2018-10-04 13:00:00 24.5 12 Sudeste 26 Este 0 1020.9 -0.1 53
2018-10-04 12:00:00 24 17 Este 32 Sudeste 0 1021.5 1.3 57
2018-10-04 11:00:00 22 10 Norte 21 Norte 0 1021.4 1.5 55
2018-10-04 10:00:00 18.7 18 Norte 33 Norte 0 1021 1.6 61
2018-10-04 09:00:00 16.5 19 Norte 24 Norte 0 1020.2 1 68
2018-10-04 08:00:00 15.9 21 Norte 30 Norte 0 1019.9 0.5 69
2018-10-04 07:00:00 15.9 19 Norte 28 Norte 0 1019.4 -0.3 71
2018-10-04 06:00:00 16.8 17 Norte 24 Norte 0 1019.2 -1 71
2018-10-04 05:00:00 17.1 18 Norte 26 Norte 0 1019.4 -1.2 71
2018-10-04 04:00:00 17.9 18 Norte 22 Norte 0 1019.7 -0.9 69
2018-10-04 03:00:00 18 13 Norte 17 Norte 0 1020.2 -0.4 72
2018-10-04 02:00:00 18.3 6 Norte 13 Norte 0 1020.6 0 71
2018-10-04 01:00:00 18.4 2 Norte 9 Norte 0 1020.6 0 70
2018-10-04 00:00:00 19.3 5 Norte 11 Oeste 0 1020.6 0.2 69
2018-10-03 23:00:00 19.8 5 Noroeste 13 Oeste 0 1020.6 0.4 65
2018-10-03 22:00:00 21.1 7 Oeste 11 Oeste 0 1020.6 0.7 63
2018-10-03 21:00:00 21.1 9 Oeste 17 Oeste 0 1020.4 0.7 68
2018-10-03 20:00:00 21.6 12 Oeste 17 Oeste 0 1020.2 0.6 68
2018-10-03 19:00:00 23.1 13 Oeste 24 Oeste 0 1019.9 0.1 59
2018-10-03 18:00:00 24.1 17 Sudoeste 26 Oeste 0 1019.7 -0.7 53
2018-10-03 17:00:00 24.9 20 Sudoeste 28 Sudoeste 0 1019.6 -1.5 47
2018-10-03 16:00:00 25.5 21 Sudoeste 28 Sudoeste 0 1019.8 -1.6 48
2018-10-03 15:00:00 25 19 Sudoeste 24 Sudoeste 0 1020.4 -1.1 51
2018-10-03 14:00:00 25.4 17 Sudoeste 24 Sudoeste 0 1021.1 -0.6 42
2018-10-03 13:00:00 25.4 14 Sudoeste 18 Sudoeste 0 1021.4 -0.1 32
2018-10-03 12:00:00 24.4 9 Norte 30 Norte 0 1021.5 0.5 32
2018-10-03 11:00:00 21.6 15 Norte 26 Norte 0 1021.7 1.3 37
2018-10-03 10:00:00 19.2 22 Norte 32 Norte 0 1021.5 1.4 41
2018-10-03 09:00:00 16.8 24 Norte 32 Norte 0 1021 1 46
2018-10-03 08:00:00 16 23 Norte 30 Norte 0 1020.4 0.4 48
2018-10-03 07:00:00 15.8 21 Norte 28 Norte 0 1020.1 -0.4 50
2018-10-03 06:00:00 15.9 22 Norte 28 Norte 0 1020 -0.4 50
2018-10-03 05:00:00 16.2 17 Norte 22 Norte 0 1020 -0.5 48
2018-10-03 04:00:00 16.6 15 Norte 21 Norte 0 1020.5 0.2 49
2018-10-03 03:00:00 16.8 13 Norte 21 Norte 0 1020.4 -0.4 49
2018-10-03 02:00:00 17.3 13 Norte 28 Nordeste 0 1020.5 -0.1 48
2018-10-03 01:00:00 17.4 9 Norte 18 Norte 0 1020.3 0 47
2018-10-03 00:00:00 17.8 12 Norte 17 Norte 0 1020.8 0.9 46
2018-10-02 23:00:00 18.6 10 Norte 13 Norte 0 1020.6 1.2 53
2018-10-02 22:00:00 19.7 5 Noroeste 13 Sudeste 0 1020.3 1.6 57
2018-10-02 21:00:00 22.6 7 Sur 17 Sudeste 0 1019.9 1.2 46
2018-10-02 20:00:00 22.3 9 Sudoeste 17 Sudoeste 0 1019.4 0.7 50
2018-10-02 19:00:00 23.4 14 Sudoeste 22 Sudoeste 0 1018.7 -0.3 49
2018-10-02 18:00:00 24.2 15 Sudoeste 24 Sur 0 1018.7 -0.4 43
2018-10-02 17:00:00 24.1 16 Sur 26 Sur 0 1018.7 -0.9 35
2018-10-02 16:00:00 23.6 18 Sudoeste 22 Sudoeste 0 1019 -0.9 38
2018-10-02 15:00:00 23.4 15 Sudoeste 26 Sur 0 1019.1 -0.9 41
2018-10-02 14:00:00 22.9 17 Sur 24 Sur 0 1019.6 -0.5 37
2018-10-02 13:00:00 23.5 9 Sudoeste 33 Norte 0 1019.9 0.1 31
2018-10-02 12:00:00 21.4 23 Norte 41 Norte 0 1020 0.9 31
2018-10-02 11:00:00 19.1 27 Norte 37 Norte 0 1020.1 1.6 37
2018-10-02 10:00:00 16.9 26 Norte 39 Norte 0 1019.8 1.7 42
2018-10-02 09:00:00 15.2 24 Norte 37 Norte 0 1019.1 1.3 46
2018-10-02 08:00:00 14.9 22 Norte 32 Norte 0 1018.5 1.3 45
2018-10-02 07:00:00 15.1 13 Norte 21 Noroeste 0 1018.1 0.9 44
2018-10-02 06:00:00 15.9 13 Norte 22 Norte 0 1017.8 0.1 40
2018-10-02 05:00:00 16.3 17 Norte 26 Norte 0 1017.2 -0.5 40
2018-10-02 04:00:00 16.7 14 Norte 48 Norte 0 1017.2 -0.5 38
2018-10-02 03:00:00 17.9 14 Norte 22 Norte 0 1017.7 -0.3 34
2018-10-02 02:00:00 19 17 Noroeste 30 Noroeste 0 1017.7 0.1 31
2018-10-02 01:00:00 18.3 8 Oeste 15 Noroeste 0 1017.7 0.4 48
2018-10-02 00:00:00 19 7 Noroeste 11 Norte 0 1018 1.2 64
2018-10-01 23:00:00 20.4 10 Nordeste 18 Nordeste 0 1017.6 1.8 59
2018-10-01 22:00:00 21 12 Este 30 Este 0 1017.3 2.4 53
2018-10-01 21:00:00 21.9 19 Este 33 Sur 0 1016.8 1.9 53
2018-10-01 20:00:00 22.1 21 Sudeste 33 Sudeste 0 1015.8 0.7 65
2018-10-01 19:00:00 22.8 22 Sudeste 33 Sudeste 0 1014.9 -0.3 67
2018-10-01 18:00:00 23.9 13 Sur 22 Sudeste 0 1014.9 -0.7 66
2018-10-01 17:00:00 23.4 13 Sur 24 Sur 0 1015.1 -1.2 67
2018-10-01 16:00:00 24.1 15 Sur 26 Sudoeste 0 1015.2 -1.5 62
2018-10-01 15:00:00 24.2 16 Sur 22 Sur 0 1015.6 -1.2 59
2018-10-01 14:00:00 24.5 14 Sudoeste 22 Sudoeste 0 1016.3 -0.6 57
2018-10-01 13:00:00 23.7 5 Norte 22 Norte 0 1016.7 -0.3 51
2018-10-01 12:00:00 23.1 18 Norte 30 Norte 0 1016.8 0.6 47
2018-10-01 11:00:00 20.9 23 Norte 41 Norte 0 1016.9 1.2 50
2018-10-01 10:00:00 19.6 26 Norte 39 Norte 0 1017 1.6 52
2018-10-01 09:00:00 18.5 21 Norte 35 Norte 0 1016.2 1.1 55
2018-10-01 08:00:00 18.4 23 Norte 33 Norte 0 1015.7 0.7 53
2018-10-01 07:00:00 19.1 23 Norte 33 Norte 0 1015.4 -0.1 53
2018-10-01 06:00:00 19.8 19 Norte 26 Norte 0 1015.1 -1 75
2018-10-01 05:00:00 20.2 14 Norte 21 Norte 0 1015 -1.3 74
2018-10-01 04:00:00 20.7 12 Norte 17 Norte 0 1015.5 -1 79
2018-10-01 03:00:00 21.1 10 Norte 18 Nordeste 0 1016.1 -0.5 81
2018-10-01 02:00:00 21.9 8 Norte 15 Nordeste 0 1016.3 -0.2 80
2018-10-01 01:00:00 22.2 12 Nordeste 21 Este 0 1016.5 0.4 82
2018-10-01 00:00:00 22.3 13 Nordeste 21 Nordeste 0 1016.6 1.1 82
2018-09-30 23:00:00 21.9 12 Norte 15 Norte 0 1016.5 1.2 79
2018-09-30 22:00:00 23.1 4 Norte 21 Oeste 0 1016.1 1.1 77
2018-09-30 21:00:00 22.8 14 Oeste 21 Oeste 0 1015.5 0.5 82
2018-09-30 20:00:00 23.5 14 Oeste 28 Oeste 0 1015.3 0.3 80
2018-09-30 19:00:00 24.8 20 Sudoeste 30 Sudoeste 0 1015 -0.3 75
2018-09-30 18:00:00 25.4 21 Sudoeste 35 Sudoeste 0 1015 -0.6 73
2018-09-30 17:00:00 25.9 26 Sudoeste 37 Sudoeste 0 1015 -1.1 70
2018-09-30 16:00:00 25.9 27 Oeste 37 Oeste 0 1015.3 -1.3 69
2018-09-30 15:00:00 26.6 27 Sudoeste 35 Oeste 0 1015.6 -1.5 66
2018-09-30 14:00:00 26.4 25 Sudoeste 33 Oeste 0 1016.1 -1.4 63
2018-09-30 13:00:00 26.3 22 Sudoeste 30 Sudoeste 0 1016.6 -0.5 65
2018-09-30 12:00:00 25.7 14 Sudoeste 21 Sudoeste 0 1017.1 0.3 65
2018-09-30 11:00:00 24 5 Norte 22 Norte 0 1017.5 1 64
2018-09-30 10:00:00 21.2 12 Norte 17 Norte 0 1017.1 0.7 71
2018-09-30 09:00:00 20.1 13 Norte 21 Norte 0 1016.8 0.4 73
2018-09-30 08:00:00 19.1 14 Norte 18 Norte 0 1016.5 -0.1 76
2018-09-30 07:00:00 19 13 Norte 21 Norte 0 1016.4 -0.4 76
2018-09-30 06:00:00 19.4 13 Norte 17 Norte 0 1016.4 -0.7 73
2018-09-30 05:00:00 19.4 12 Norte 18 Norte 0 1016.6 -0.7 74
2018-09-30 04:00:00 19.8 14 Norte 17 Norte 0 1016.8 -0.8 73
2018-09-30 03:00:00 20.5 14 Norte 17 Norte 0 1017.1 -0.5 68
2018-09-30 02:00:00 21.5 10 Norte 17 Nordeste 0 1017.3 -0.3 68
2018-09-30 01:00:00 22.5 8 Nordeste 22 Nordeste 0 1017.6 0.2 64
2018-09-30 00:00:00 22.6 14 Este 22 Este 0 1017.6 0.8 69
2018-09-29 23:00:00 22.4 19 Este 32 Este 0 1017.6 1.6 72
2018-09-29 22:00:00 22.8 22 Este 39 Nordeste 0 1017.4 1.8 78
2018-09-29 21:00:00 23.2 29 Este 37 Este 0 1016.8 1.6 75
2018-09-29 20:00:00 23.5 24 Este 33 Este 0 1016 0.8 75
2018-09-29 19:00:00 24.5 24 Este 35 Nordeste 0 1015.6 0.2 70
2018-09-29 18:00:00 25.2 22 Este 28 Este 0 1015.2 -0.1 67
2018-09-29 17:00:00 26.1 14 Este 24 Este 0 1015.2 -0.3 59
2018-09-29 16:00:00 25.7 19 Sudeste 30 Este 0 1015.4 -0.2 68
2018-09-29 15:00:00 26.2 18 Este 26 Este 0 1015.3 -0.6 61
2018-09-29 14:00:00 27 13 Sudeste 21 Sudeste 0 1015.5 -0.5 52
2018-09-29 13:00:00 26.7 12 Sudeste 24 Sudeste 0 1015.6 0.3 50
2018-09-29 12:00:00 26.1 12 Sudeste 21 Norte 0 1015.9 1.1 58
2018-09-29 11:00:00 24.7 13 Norte 18 Norte 0 1016 1.3 50
2018-09-29 10:00:00 21.6 12 Norte 24 Norte 0 1015.3 0.9 62
2018-09-29 09:00:00 19.2 19 Norte 26 Norte 0 1014.8 0.3 70
2018-09-29 08:00:00 18.7 15 Norte 24 Norte 0 1014.7 0.1 72
2018-09-29 07:00:00 18.9 17 Norte 22 Norte 0 1014.4 -0.6 71
2018-09-29 06:00:00 19.3 15 Norte 22 Norte 0 1014.5 -1.1 69
2018-09-29 05:00:00 19.7 13 Norte 17 Norte 0 1014.6 -1.1 68
2018-09-29 04:00:00 19.7 0 Calma 13 Norte 0 1015 -1.1 69
2018-09-29 03:00:00 20.2 0 Calma 9 Norte 0 1015.6 -- 68
2018-09-29 02:00:00 20.9 0 Calma 11 Nordeste 0 1015.7 -- 62
2018-09-29 01:00:00 21.7 0 Calma -- -- -- 1016.1 -- 60
2018-09-29 00:00:00 -- -- -- -- -- -- -- -- --
2018-09-28 23:00:00 -- -- -- -- -- -- -- -- --
2018-09-28 22:00:00 -- -- -- -- -- -- -- -- --
2018-09-28 21:00:00 24.5 23 Oeste 32 Oeste 0 1015.5 -0.5 49
2018-09-28 20:00:00 24.7 23 Oeste 33 Oeste 0 1015.4 -0.9 55
2018-09-28 19:00:00 25.7 24 Oeste 35 Oeste 0 1015.6 -1.3 55
2018-09-28 18:00:00 26.1 25 Sudoeste 35 Oeste 0 1016 -1.8 61
2018-09-28 17:00:00 26.1 28 Sudoeste 37 Sudoeste 0 1016.3 -2.5 64
2018-09-28 16:00:00 26.8 26 Sudoeste 32 Sudoeste 0 1016.9 -2.8 59
2018-09-28 15:00:00 26.5 22 Sudoeste 32 Oeste 0 1017.8 -2.4 62
2018-09-28 14:00:00 26.1 26 Sudoeste 30 Sudoeste 0 1018.8 -1.8 66
2018-09-28 13:00:00 26.1 15 Sudoeste 21 Sudoeste 0 1019.7 -0.8 60
2018-09-28 12:00:00 25.9 9 Sudoeste 15 Sudoeste 0 1020.2 -0.2 59
2018-09-28 11:00:00 22.7 7 Norte 18 Norte 0 1020.6 0.2 65
2018-09-28 10:00:00 19.6 16 Norte 22 Norte 0 1020.5 0.1 74
2018-09-28 09:00:00 17.5 17 Norte 22 Norte 0 1020.4 -0.3 82
2018-09-28 08:00:00 16.6 15 Norte 22 Norte 0 1020.4 -0.6 86
2018-09-28 07:00:00 16.7 13 Norte 21 Norte 0 1020.4 -1.2 86
2018-09-28 06:00:00 17 14 Norte 22 Norte 0 1020.7 -1.7 86
2018-09-28 05:00:00 17.5 15 Norte 21 Norte 0 1021 -1.8 85
2018-09-28 04:00:00 17.9 13 Norte 18 Norte 0 1021.6 -1.7 85
2018-09-28 03:00:00 18.3 12 Norte 17 Norte 0 1022.4 -1.3 84
2018-09-28 02:00:00 18.7 10 Norte 18 Nordeste 0 1022.8 -1.2 83
2018-09-28 01:00:00 19.1 12 Norte 21 Norte 0 1023.3 -1.2 81
2018-09-28 00:00:00 19.3 8 Norte 9 Norte 0 1023.7 -1 80
2018-09-27 23:00:00 20 6 Noroeste 9 Noroeste 0 1024 -0.7 77
2018-09-27 22:00:00 20.4 7 Oeste 11 Oeste 0 1024.5 -0.5 75
2018-09-27 21:00:00 20.9 8 Oeste 11 Oeste 0 1024.7 -0.8 74
2018-09-27 20:00:00 21.6 8 Oeste 13 Sudoeste 0 1024.7 -- 71
2018-09-27 19:00:00 23.3 11 Sudoeste 15 Sudoeste 0 1025 -1.7 63
2018-09-27 18:00:00 24.1 10 Sur 18 Sur 0 1025.5 -1.8 60
2018-09-27 17:00:00 -- 11 Sur 21 Sudeste 0 -- -- --
2018-09-27 16:00:00 23.7 14 Sudeste 26 Sudeste 0 1026.7 -1.9 63
2018-09-27 15:00:00 23.4 15 Sudeste 26 Este 0 1027.3 -1.9 63
2018-09-27 14:00:00 23.4 16 Sudeste 26 Sudeste 0 1028 -1.9 58
2018-09-27 13:00:00 23.5 13 Este 24 Este 0 1028.6 -1.2 56
2018-09-27 12:00:00 23.5 9 Este 15 Este 0 1029.2 -0.5 53
2018-09-27 11:00:00 21.2 11 Norte 21 Norte 0 1029.9 0.6 58
2018-09-27 10:00:00 18.8 18 Norte 22 Norte 0 1029.8 0.6 69
2018-09-27 09:00:00 16.4 17 Norte 24 Norte 0 1029.7 0.4 77
2018-09-27 08:00:00 15.9 18 Norte 22 Norte 0 1029.3 -0.4 79
2018-09-27 07:00:00 16.3 14 Norte 18 Norte 0 1029.2 -1 77
2018-09-27 06:00:00 16.7 14 Norte 18 Norte 0 1029.3 -1.6 74
2018-09-27 05:00:00 16.8 14 Norte 22 Nordeste 0 1029.7 -1.4 75
2018-09-27 04:00:00 17.1 14 Norte 18 Norte 0 1030.2 -0.9 75
2018-09-27 03:00:00 17.4 13 Norte 17 Norte 0 1030.9 -0.4 74
2018-09-27 02:00:00 18.1 13 Norte 21 Norte 0 1031.1 -0.1 72
2018-09-27 01:00:00 20 13 Nordeste 21 Nordeste 0 1031.1 0.1 65
2018-09-27 00:00:00 20.6 15 Nordeste 28 Este 0 1031.3 0.5 67
2018-09-26 23:00:00 21.2 21 Este 32 Este 0 1031.2 0.7 62
2018-09-26 22:00:00 21.5 20 Este 33 Este 0 1031 0.5 59
2018-09-26 21:00:00 21.9 24 Este 33 Este 0 1030.8 0.5 57
2018-09-26 20:00:00 22.3 23 Este 32 Este 0 1030.5 0.3 57
2018-09-26 19:00:00 23 23 Este 35 Este 0 1030.5 0.2 57
2018-09-26 18:00:00 23.7 30 Este 42 Este 0 1030.3 -0.1 57
2018-09-26 17:00:00 24.4 33 Este 42 Este 0 1030.2 -0.6 55
2018-09-26 16:00:00 24.7 34 Este 50 Este 0 1030.3 -0.7 56
2018-09-26 15:00:00 24.8 36 Este 48 Este 0 1030.4 -0.6 55
2018-09-26 14:00:00 24.4 37 Este 54 Este 0 1030.8 0 58
2018-09-26 13:00:00 24.4 45 Este 55 Este 0 1031 0.7 56
2018-09-26 12:00:00 24.2 38 Este 58 Nordeste 0 1031 1.5 50
2018-09-26 11:00:00 23.2 40 Este 52 Este 0 1030.8 1.8 55
2018-09-26 10:00:00 22.3 33 Este 54 Nordeste 0 1030.3 1.9 60
2018-09-26 09:00:00 22 36 Nordeste 46 Este 0 1029.5 1.4 62
2018-09-26 08:00:00 21.5 31 Nordeste 45 Este 0 1029 1.2 65
2018-09-26 07:00:00 21.8 30 Este 41 Este 0 1028.4 0.7 62
2018-09-26 06:00:00 21.8 29 Este 39 Nordeste 0 1028.1 0.2 63
2018-09-26 05:00:00 21.9 28 Nordeste 42 Este 0 1027.8 0.3 64
2018-09-26 04:00:00 22.1 31 Este 45 Este 0 1027.7 0.4 64
2018-09-26 03:00:00 22.4 30 Este 50 Este 0 1027.9 0.8 64
2018-09-26 02:00:00 22.5 35 Este 52 Este 0 1027.5 0.6 62
2018-09-26 01:00:00 22.7 31 Nordeste 45 Nordeste 0 1027.3 0.7 60
2018-09-26 00:00:00 22.6 26 Nordeste 41 Nordeste 0 1027.1 0.9 60
2018-09-25 23:00:00 22.5 22 Nordeste 39 Nordeste 0 1026.9 1.4 60
2018-09-25 22:00:00 22.5 28 Este 42 Este 0 1026.6 1.7 60
2018-09-25 21:00:00 22.8 31 Este 42 Este 0 1026.2 1.6 58
2018-09-25 20:00:00 23.2 33 Este 48 Este 0 1025.5 1 60
2018-09-25 19:00:00 23.8 38 Este 50 Este 0 1024.9 0.5 59
2018-09-25 18:00:00 24.5 40 Este 50 Este 0 1024.6 -0.2 55
2018-09-25 17:00:00 25.2 36 Este 46 Este 0 1024.5 -0.7 53
2018-09-25 16:00:00 25.1 32 Este 39 Este 0 1024.4 -1 54
2018-09-25 15:00:00 25.6 30 Este 37 Este 0 1024.8 -0.8 41
2018-09-25 14:00:00 25.7 27 Este 33 Este 0 1025.2 -0.4 37
2018-09-25 13:00:00 24.9 14 Sudeste 35 Norte 0 1025.4 0.2 49
2018-09-25 12:00:00 24 13 Norte 48 Norte 0 1025.6 1 43
2018-09-25 11:00:00 22.1 19 Norte 28 Norte 0 1025.6 1.7 43
2018-09-25 10:00:00 20.3 21 Norte 32 Norte 0 1025.2 1.7 45
2018-09-25 09:00:00 18.8 16 Norte 24 Norte 0 1024.6 1.5 53
2018-09-25 08:00:00 18.6 16 Norte 28 Norte 0 1023.9 1 56
2018-09-25 07:00:00 18.9 18 Norte 24 Norte 0 1023.5 0.6 59
2018-09-25 06:00:00 19.8 14 Norte 22 Este 0 1023.1 0.2 64
2018-09-25 05:00:00 21.4 18 Este 24 Este 0 1022.9 0.2 60
2018-09-25 04:00:00 21.6 16 Este 22 Este 0 1022.9 0.3 60
2018-09-25 03:00:00 22 10 Este 13 Este 0 1022.9 0.4 69
2018-09-25 02:00:00 22 11 Este 17 Este 0 1022.7 0.6 67
2018-09-25 01:00:00 22.5 13 Este 22 Este 0 1022.6 0.9 70
2018-09-25 00:00:00 23.6 14 Sudeste 24 Este 0 1022.5 1.3 67
2018-09-24 23:00:00 23.8 17 Este 26 Este 0.1 1022.1 1.5 66
2018-09-24 22:00:00 24.3 18 Este 26 Este 0 1021.7 1.6 68
2018-09-24 21:00:00 24.5 10 Este 21 Este 0 1021.2 1.3 72
2018-09-24 20:00:00 25 15 Este 30 Este 0 1020.6 0.7 71
2018-09-24 19:00:00 25.5 14 Sudeste 24 Sudeste 0 1020.1 0 68
2018-09-24 18:00:00 25.7 15 Sudeste 24 Sudeste 0 1019.9 -0.6 66
2018-09-24 17:00:00 25.9 15 Sudeste 28 Este 0 1019.9 -1.2 65
2018-09-24 16:00:00 25.9 20 Sudeste 33 Sudeste 0 1020.1 -1.2 66
2018-09-24 15:00:00 24.9 18 Este 26 Este 0 1020.5 -0.8 74
2018-09-24 14:00:00 24.9 16 Este 32 Este 1 1021.1 -0.1 76
2018-09-24 13:00:00 25.5 15 Este 24 Nordeste 0 1021.3 0.5 73
2018-09-24 12:00:00 25.6 14 Nordeste 35 Norte 0 1021.3 1 73
2018-09-24 11:00:00 25.5 19 Nordeste 33 Nordeste 0 1021.2 1.8 67
2018-09-24 10:00:00 24.2 17 Norte 26 Norte 0 1020.8 1.8 67
2018-09-24 09:00:00 22.9 16 Norte 22 Norte 0 1020.3 1.3 76
2018-09-24 08:00:00 22.1 12 Norte 21 Norte 0 1019.4 0.4 81
2018-09-24 07:00:00 22.1 15 Norte 21 Norte 0 1019 -0.3 84
2018-09-24 06:00:00 22.5 13 Norte 17 Norte 0 1019 -0.3 83
2018-09-24 05:00:00 22.7 13 Norte 17 Norte 0 1019 -0.4 81
2018-09-24 04:00:00 22.7 5 Norte 11 Norte 0 1019.3 -0.9 77
2018-09-24 03:00:00 22.6 8 Norte -- -- 0 1019.3 -1.1 75
2018-09-24 02:00:00 23.5 0 Calma 11 Norte 0 1019.4 -0.7 73
2018-09-24 01:00:00 24.1 7 Norte 13 Nordeste 0 1020.2 0.2 71
2018-09-24 00:00:00 23.9 5 Noroeste 17 Oeste 0 1020.4 0.9 73
2018-09-23 23:00:00 25.4 13 Sudoeste 18 Sudoeste 0 1020.1 1.3 85
2018-09-23 22:00:00 25.4 11 Sudoeste 21 Sudoeste 0 1020 1.4 84
2018-09-23 21:00:00 25.9 15 Sudoeste 26 Oeste 0 1019.5 1 81
2018-09-23 20:00:00 26.2 21 Sudoeste 32 Oeste 0 1018.8 0 75
2018-09-23 19:00:00 27.4 25 Sudoeste 33 Sudoeste 0 1018.6 -0.7 64
2018-09-23 18:00:00 27.8 24 Sudoeste 39 Sudoeste 0 1018.5 -1.6 74
2018-09-23 17:00:00 27.9 30 Sudoeste 42 Sudoeste 0 1018.8 -2.1 71
2018-09-23 16:00:00 28.6 30 Sudoeste 39 Sudoeste 0 1019.3 -2.2 57
2018-09-23 15:00:00 28 26 Sudoeste 33 Sudoeste 0 1020.1 -1.8 68
2018-09-23 14:00:00 27.9 23 Sudoeste 30 Sudoeste 0 1020.9 -1.1 70
2018-09-23 13:00:00 27.7 20 Sudoeste 26 Sudoeste 0 1021.5 -0.3 73
2018-09-23 12:00:00 27.6 14 Sur 21 Sudoeste 0 1021.9 0.5 72
2018-09-23 11:00:00 26.8 5 Norte 15 Norte 0 1022 0.8 69
2018-09-23 10:00:00 24.3 13 Norte 22 Norte 0 1021.8 0.9 75
2018-09-23 09:00:00 22.5 16 Norte 22 Norte 0 1021.4 0.5 80
2018-09-23 08:00:00 22 15 Norte 22 Norte 0 1021.2 0.1 82
2018-09-23 07:00:00 22.2 15 Norte 21 Norte 0 1020.9 -0.4 84
2018-09-23 06:00:00 22.6 12 Norte 17 Norte 0 1020.9 -0.7 86
2018-09-23 05:00:00 22.8 12 Norte 13 Norte 0 1021.1 -0.6 85
2018-09-23 04:00:00 22.7 11 Norte 21 Nordeste 0 1021.3 -0.5 83
2018-09-23 03:00:00 22.9 2 Noroeste 11 Norte 0 1021.6 -0.2 80
2018-09-23 02:00:00 23.3 3 Noroeste 13 Nordeste 0 1021.7 0 81
2018-09-23 01:00:00 24.5 6 Norte 15 Nordeste 0 1021.8 0.4 77
2018-09-23 00:00:00 24.9 4 Sudoeste 8 Sudoeste 0 1021.8 0.8 81
2018-09-22 23:00:00 24.7 4 Oeste 13 Oeste 0 1021.7 1.3 84
2018-09-22 22:00:00 25.1 12 Oeste 18 Oeste 0 1021.4 1.8 83
2018-09-22 21:00:00 25.8 13 Sudoeste 21 Sudoeste 0 1021 1.2 80
2018-09-22 20:00:00 26 16 Sudoeste 30 Sudoeste 0 1020.4 0.6 79
2018-09-22 19:00:00 27 25 Sudoeste 33 Sudoeste 0 1019.6 -0.4 71
2018-09-22 18:00:00 27.7 25 Sudoeste 33 Sudoeste 0 1019.8 -0.6 63
2018-09-22 17:00:00 28.5 23 Sudoeste 37 Sudoeste 0 1019.8 -1.2 57
2018-09-22 16:00:00 28.6 28 Sudoeste 37 Sudoeste 0 1020 -1.2 54
2018-09-22 15:00:00 28.4 27 Sudoeste 35 Sudoeste 0 1020.4 -1.3 51
2018-09-22 14:00:00 28.2 24 Sudoeste 32 Sudoeste 0 1021 -0.8 61
2018-09-22 13:00:00 28.6 22 Sudoeste 30 Sudoeste 0 1021.2 -0.3 60
2018-09-22 12:00:00 28 15 Sudoeste 22 Sudoeste 0 1021.7 0.7 69
2018-09-22 11:00:00 26.8 7 Norte 15 Norte 0 1021.8 1.1 70
2018-09-22 10:00:00 25 13 Norte 17 Norte 0 1021.5 1.4 74
2018-09-22 09:00:00 23.3 10 Norte 17 Norte 0 1021 1.2 81
2018-09-22 08:00:00 22.4 12 Norte 18 Norte 0 1020.7 0.8 81
2018-09-22 07:00:00 22.4 4 Norte 11 Norte 0 1020.1 0 81
2018-09-22 06:00:00 22.5 9 Norte 15 Norte 0 1019.8 -0.3 82
2018-09-22 05:00:00 22.4 10 Norte 15 Norte 0 1019.9 -0.3 84
2018-09-22 04:00:00 22.6 9 Norte 13 Norte 0 1020.1 -0.1 84
2018-09-22 03:00:00 22.9 8 Norte 15 Norte 0 1020.1 0 83
2018-09-22 02:00:00 23.9 7 Norte 15 Nordeste 0 1020.2 0.7 79
2018-09-22 01:00:00 24.5 8 Norte 13 Este 0 1020.2 1.2 76
2018-09-22 00:00:00 24.7 11 Este 17 Este 0 1020.1 1.8 79
2018-09-21 23:00:00 25.1 13 Este 21 Este 0 1019.5 1.9 77
2018-09-21 22:00:00 25.2 15 Este 22 Este 0 1019 2.4 81
2018-09-21 21:00:00 25.2 19 Este 32 Este 0 1018.3 2 82
2018-09-21 20:00:00 26.5 6 Sudeste 15 Sur 0 1017.6 1.5 77
2018-09-21 19:00:00 27.5 10 Sur 17 Sur 0 1016.6 0.7 74
2018-09-21 18:00:00 28.2 13 Sudoeste 22 Sudoeste 0 1016.3 0.1 70
2018-09-21 17:00:00 27.9 17 Sudoeste 33 Sudoeste 0 1016.1 -0.2 71
2018-09-21 16:00:00 28.5 25 Sudoeste 37 Sudoeste 0 1015.9 -0.7 68
2018-09-21 15:00:00 28.1 30 Sudoeste 41 Sudoeste 0 1016.2 -0.6 71
2018-09-21 14:00:00 28 32 Sudoeste 41 Sudoeste 0 1016.3 -0.4 70
2018-09-21 13:00:00 28.4 28 Sudoeste 35 Sudoeste 0 1016.6 0.3 67
2018-09-21 12:00:00 28.9 17 Oeste 22 Oeste 0 1016.8 0.7 59
2018-09-21 11:00:00 26.7 8 Norte 24 Norte 0 1016.7 1.2 56
2018-09-21 10:00:00 24.1 6 Norte 18 Norte 0 1016.3 0.9 60
2018-09-21 09:00:00 22 13 Norte 18 Norte 0 1016.1 0.9 65
2018-09-21 08:00:00 21.1 11 Norte 21 Norte 0 1015.5 0.3 68
2018-09-21 07:00:00 21.1 14 Norte 18 Norte 0 1015.4 -0.2 68
2018-09-21 06:00:00 21.1 15 Norte 18 Norte 0 1015.2 -0.8 70
2018-09-21 05:00:00 21.4 14 Norte 18 Norte 0 1015.2 -1.3 69
2018-09-21 04:00:00 21.6 13 Norte 21 Norte 0 1015.6 -1.2 77
2018-09-21 03:00:00 22.2 10 Norte 18 Nordeste 0 1016 -1 81
2018-09-21 02:00:00 22.7 10 Norte 18 Norte 0 1016.5 -0.4 79
2018-09-21 01:00:00 23.1 0 Calma 17 Este 0 1016.8 -0.2 72
2018-09-21 00:00:00 23.5 4 Norte 9 Norte 0 1017 0.2 69
2018-09-20 23:00:00 24 2 Oeste 9 Oeste 0 1016.9 0.4 77
2018-09-20 22:00:00 24.3 9 Oeste 22 Sudoeste 0 1017 0.4 81
2018-09-20 21:00:00 25.1 17 Sudoeste 22 Sudoeste 0 1016.8 0.3 78
2018-09-20 20:00:00 25.6 16 Sudoeste 28 Sudoeste 0 1016.5 -0.4 77
2018-09-20 19:00:00 26.7 20 Sudoeste 30 Sudoeste 0 1016.6 -0.7 72
2018-09-20 18:00:00 27.4 20 Sudoeste 30 Oeste 0 1016.5 -1.4 67
2018-09-20 17:00:00 28.1 21 Sudoeste 28 Oeste 0 1016.9 -1.6 63
2018-09-20 16:00:00 28.5 18 Sudoeste 24 Sudoeste 0 1017.3 -1.6 59
2018-09-20 15:00:00 28.7 17 Sudoeste 24 Sudoeste 0 1017.9 -1.3 56
2018-09-20 14:00:00 28.4 16 Sudoeste 22 Sudoeste 0 1018.5 -0.9 58
2018-09-20 13:00:00 28.1 16 Sudoeste 22 Norte 0 1018.9 -0.3 62
2018-09-20 12:00:00 28.8 5 Noroeste 17 Norte 0 1019.2 0.3 57
2018-09-20 11:00:00 26.4 12 Norte 22 Norte 0 1019.4 0.7 64
2018-09-20 10:00:00 23.9 17 Norte 26 Norte 0 1019.2 0.7 73
2018-09-20 09:00:00 21.8 21 Norte 28 Norte 0 1018.9 0.2 80
2018-09-20 08:00:00 21.1 18 Norte 24 Norte 0 1018.7 -0.3 83
2018-09-20 07:00:00 21.4 19 Norte 26 Norte 0 1018.5 -0.8 83
2018-09-20 06:00:00 21.4 13 Norte 35 Norte 0 1018.7 -1 83
2018-09-20 05:00:00 21.6 14 Norte 30 Norte 0 1019 -1.1 83
2018-09-20 04:00:00 21.8 14 Norte 30 Norte 0 1019.3 -1.3 85
2018-09-20 03:00:00 21.9 10 Norte 24 Nordeste 0 1019.7 -1 84
2018-09-20 02:00:00 22.5 10 Norte 26 Norte 0 1020.1 -0.5 82
2018-09-20 01:00:00 22.5 6 Nordeste 17 Noroeste 0 1020.6 0.1 83
2018-09-20 00:00:00 22.7 5 Noroeste -- -- 0 1020.7 0.7 83
2018-09-19 23:00:00 23.5 6 Noroeste 9 Noroeste 0 1020.6 0.9 83
2018-09-19 22:00:00 24.1 5 Oeste 9 Sudoeste 0 1020.5 1.1 81
2018-09-19 21:00:00 24.3 5 Oeste 11 Sudoeste 0 1020 0.8 80
2018-09-19 20:00:00 24.8 8 Sudoeste 13 Sudoeste 0 1019.7 0.3 77
2018-09-19 19:00:00 26.2 8 Sudoeste 17 Sur 0 1019.4 -0.2 72
2018-09-19 18:00:00 26.7 11 Sur 18 Sur 0 1019.2 -0.8 70
2018-09-19 17:00:00 26.6 12 Sur 22 Sudeste 0 1019.4 -0.9 71
2018-09-19 16:00:00 26.6 15 Sur 24 Sur 0 1019.6 -0.8 71
2018-09-19 15:00:00 26.7 14 Sudeste 26 Sudeste 0 1020 -0.6 68
2018-09-19 14:00:00 26.3 15 Sudeste 22 Sudeste 0 1020.3 -0.3 69
2018-09-19 13:00:00 26.9 16 Este 22 Este 0 1020.4 0.3 66
2018-09-19 12:00:00 26.8 13 Este 26 Este 0 1020.6 1.3 63
2018-09-19 11:00:00 25.2 13 Norte 24 Norte 0 1020.6 1.6 68
2018-09-19 10:00:00 23.2 17 Norte 24 Norte 0 1020.1 1.4 75
2018-09-19 09:00:00 21.4 15 Norte 22 Norte 0 1019.3 1 83
2018-09-19 08:00:00 20.5 13 Norte 22 Norte 0 1019 0.9 86
2018-09-19 07:00:00 20.5 17 Norte 22 Norte 0 1018.7 0.7 86
2018-09-19 06:00:00 20.8 17 Norte 22 Norte 0 1018.3 0.1 88
2018-09-19 05:00:00 21.2 17 Norte 24 Norte 0 1018.1 -0.2 87
2018-09-19 04:00:00 21.2 11 Norte 17 Norte 0 1018 -0.2 88
2018-09-19 03:00:00 21.1 13 Norte 17 Norte 0 1018.2 0 89
2018-09-19 02:00:00 21.7 10 Norte 17 Nordeste 0 1018.3 0 87
2018-09-19 01:00:00 21.8 8 Nordeste 13 Norte 0 1018.2 0.5 87
2018-09-19 00:00:00 22.3 8 Norte 15 Norte 0 1018.2 1.3 86
2018-09-18 23:00:00 22.8 6 Norte 9 Norte 0 1018.3 1.9 85
2018-09-18 22:00:00 22.9 5 Noroeste 9 Oeste 0 1017.7 1.2 86
2018-09-18 21:00:00 23.1 8 Oeste 9 Oeste 0 1016.9 0.6 84
2018-09-18 20:00:00 24.4 2 Nordeste 17 Sur 0 1016.4 -0.1 77
2018-09-18 19:00:00 24.7 6 Sudeste 13 Sudeste 0 1016.5 0 77
2018-09-18 18:00:00 25.1 5 Sudeste 17 Sudeste 0 1016.3 -0.4 74
2018-09-18 17:00:00 25.1 10 Sudeste 26 Este 0 1016.5 -0.7 72
2018-09-18 16:00:00 25.2 18 Sudeste 30 Este 0 1016.5 -0.4 72
2018-09-18 15:00:00 25 24 Este 33 Este 0 1016.7 0.1 77
2018-09-18 14:00:00 24.9 23 Este 32 Este 0 1017.2 0.7 72
2018-09-18 13:00:00 25.9 11 Este 18 Este 0 1016.9 0.2 69
2018-09-18 12:00:00 24 12 Norte 39 Norte 0 1016.6 -0.7 78
2018-09-18 11:00:00 21.1 17 Norte 22 Norte 0 1016.5 -0.5 89
2018-09-18 10:00:00 20.5 15 Norte 24 Norte 1.3 1016.7 0.6 90
2018-09-18 09:00:00 20.6 13 Norte 26 Oeste 4 1017.3 1.4 88
2018-09-18 08:00:00 21.5 13 Oeste 22 Norte 0.2 1017 1.3 82
2018-09-18 07:00:00 21.7 17 Norte 24 Norte 0 1016.1 -0.4 77
2018-09-18 06:00:00 21.7 16 Norte 24 Norte 0 1015.9 -1 76
2018-09-18 05:00:00 21.6 15 Norte 22 Norte 0 1015.7 -1.4 79
2018-09-18 04:00:00 22 16 Norte 22 Norte 0 1016.5 -1 76
2018-09-18 03:00:00 22 15 Norte 21 Norte 0 1016.9 -0.5 78
2018-09-18 02:00:00 21.6 13 Norte 24 Nordeste 0 1017.1 -0.3 80
2018-09-18 01:00:00 22.3 13 Norte 22 Nordeste 0 1017.5 -0.1 79
2018-09-18 00:00:00 23 8 Norte 13 Este 0 1017.4 0.3 76
2018-09-17 23:00:00 24.2 11 Este 17 Nordeste 0 1017.4 0.5 74
2018-09-17 22:00:00 24.4 10 Este 15 Este 0 1017.6 0.5 72
2018-09-17 21:00:00 24.7 11 Este 18 Nordeste 0 1017.1 -0.2 71
2018-09-17 20:00:00 25.1 12 Este 21 Este 0 1016.9 -0.9 72
2018-09-17 19:00:00 26.1 16 Este 22 Este 0 1017.1 -1.3 64
2018-09-17 18:00:00 26.6 16 Sudeste 22 Este 0 1017.3 -1.4 64
2018-09-17 17:00:00 27 15 Sudeste 24 Sudeste 0 1017.8 -1.4 63
2018-09-17 16:00:00 27.2 18 Sudeste 30 Este 0 1018.4 -1.3 64
2018-09-17 15:00:00 27 19 Este 28 Este 0 1018.7 -1.2 65
2018-09-17 14:00:00 27.3 16 Este 24 Sudeste 0 1019.2 -0.9 63
2018-09-17 13:00:00 27.4 14 Sudeste 26 Sudeste 0 1019.7 -0.2 64
2018-09-17 12:00:00 27.2 12 Sudeste 24 Este 0 1019.9 0.4 63
2018-09-17 11:00:00 26 4 Este 32 Nordeste 0 1020.1 0.8 68
2018-09-17 10:00:00 23.9 14 Norte 21 Norte 0 1019.9 0.6 72
2018-09-17 09:00:00 21.9 16 Norte 24 Norte 0 1019.5 0.3 79
2018-09-17 08:00:00 20.9 17 Norte 22 Norte 0 1019.3 0 84
2018-09-17 07:00:00 21.4 12 Norte 21 Norte 0 1019.3 -0.2 84
2018-09-17 06:00:00 21.5 13 Norte 18 Norte 0 1019.2 -0.6 85
2018-09-17 05:00:00 22 11 Norte 18 Norte 0 1019.3 -0.8 84
2018-09-17 04:00:00 22.3 14 Norte 18 Norte 0 1019.5 -1 84
2018-09-17 03:00:00 22.4 12 Norte 15 Nordeste 0 1019.8 -0.3 85
2018-09-17 02:00:00 23 6 Norte 17 Norte 0 1020.1 0.1 82
2018-09-17 01:00:00 23.2 11 Norte 24 Nordeste 0 1020.5 -0.4 82
2018-09-17 00:00:00 25.1 4 Sudeste 15 Sudeste 0 1020.1 -0.4 73
2018-09-16 23:00:00 25.2 10 Sudeste 15 Sudeste 0 1020 0.3 76
2018-09-16 22:00:00 25.2 9 Este 15 Este 0 1020.9 1.5 76
2018-09-16 21:00:00 25.4 9 Este 11 Este 0 1020.5 1.3 75
2018-09-16 20:00:00 25.7 7 Sur 13 Sur 0 1019.7 0.5 74
2018-09-16 19:00:00 26.5 7 Sur 15 Sur 0 1019.4 0.2 71
2018-09-16 18:00:00 26.9 12 Sur 24 Sur 0 1019.2 -0.3 68
2018-09-16 17:00:00 27.1 13 Sur 21 Sur 0 1019.2 -0.7 65
2018-09-16 16:00:00 27.2 11 Sur 18 Sur 0 1019.2 -1.2 65
2018-09-16 15:00:00 27.1 12 Sur 24 Sudeste 0 1019.5 -1.1 66
2018-09-16 14:00:00 27.8 11 Sur 17 Sur 0 1019.9 -0.9 57
2018-09-16 13:00:00 26 5 Oeste 13 Oeste 0.3 1020.4 -0.1 73
2018-09-16 12:00:00 26.1 9 Sudoeste 13 Sudoeste 0 1020.6 0.1 70
2018-09-16 11:00:00 24.7 2 Sudoeste 13 Norte 0 1020.8 0.7 72
2018-09-16 10:00:00 22.4 9 Norte 13 Norte 0 1020.5 0.8 81
2018-09-16 09:00:00 22.1 10 Norte 13 Norte 0 1020.5 1 81
2018-09-16 08:00:00 21.5 10 Norte 17 Norte 0 1020.1 0.6 82
2018-09-16 07:00:00 21.6 11 Norte 18 Norte 0 1019.7 0 80
2018-09-16 06:00:00 21.4 13 Norte 22 Norte 0 1019.5 -0.6 84
2018-09-16 05:00:00 21.3 11 Norte 26 Nordeste 0 1019.5 -1.1 83
2018-09-16 04:00:00 21.3 11 Norte 30 Norte 0 1019.7 -1.4 84
2018-09-16 03:00:00 21.6 12 Norte 21 Norte 0 1020.1 -1.2 81
2018-09-16 02:00:00 21.8 12 Norte 24 Nordeste 0.1 1020.6 -0.4 82
2018-09-16 01:00:00 22.1 12 Norte 18 Nordeste 0.7 1021.1 0.8 80
2018-09-16 00:00:00 23.4 6 Norte 32 Nordeste 0.1 1021.3 1.4 71
2018-09-15 23:00:00 23.9 9 Norte 32 Nordeste 0 1021 1 67
2018-09-15 22:00:00 24.3 6 Nordeste 15 Norte 0 1020.3 0.2 70
2018-09-15 21:00:00 24.3 6 Este 21 Este 0 1019.9 -0.6 72
2018-09-15 20:00:00 24.7 9 Sudeste 13 Sudeste 0 1020 -0.9 69
2018-09-15 19:00:00 24.9 10 Este 17 Este 0 1020.1 -0.7 60
2018-09-15 18:00:00 25.3 11 Este 21 Este 0 1020.5 -0.2 58
2018-09-15 17:00:00 25.2 13 Sudeste 24 Sudeste 0 1020.9 0.1 57
2018-09-15 16:00:00 25.5 17 Sudeste 28 Este 0 1020.8 0.2 53
2018-09-15 15:00:00 25.8 17 Sudeste 26 Este 0 1020.7 0 58
2018-09-15 14:00:00 26.3 13 Sudeste 21 Sudeste 0 1020.8 0.1 58
2018-09-15 13:00:00 26.5 13 Sudeste 22 Sudeste 0 1020.6 -0.1 58
2018-09-15 12:00:00 26.5 14 Sudeste 26 Este 0 1020.7 0.5 57
2018-09-15 11:00:00 26 18 Este 30 Nordeste 0 1020.7 0.4 63
2018-09-15 10:00:00 24.3 13 Norte 30 Norte 0 1020.7 0.9 71
2018-09-15 09:00:00 22.9 12 Norte 32 Norte 0 1020.2 0.7 78
2018-09-15 08:00:00 22.9 7 Norte 22 Norte 0 1020.3 1 73
2018-09-15 07:00:00 22.9 10 Nordeste 18 Nordeste 0 1019.8 0.2 69
2018-09-15 06:00:00 22.9 13 Norte 21 Norte 0 1019.5 -0.2 79
2018-09-15 05:00:00 22.8 13 Norte 17 Nordeste 0 1019.3 -0.4 79
2018-09-15 04:00:00 22.6 11 Norte 15 Norte 0 1019.6 0.3 79
2018-09-15 03:00:00 22.8 13 Norte 15 Norte 0 1019.7 0.7 77
2018-09-15 02:00:00 23 11 Norte 18 Nordeste 0 1019.7 1.1 76
2018-09-15 01:00:00 23.1 10 Norte 13 Norte 0 1019.3 0.9 77
2018-09-15 00:00:00 23.8 9 Norte 13 Norte 0 1019 1 75